Time;durP1;ratioP1;P1;durP2;ratioP2;P2;SDS_P1;SDS_P2;PMS_P1;PMS_P2;Temp;Humidity;BMP_temperature;BMP_pressure;BME280_temperature;BME280_humidity;BME280_pressure;Samples;Min_cycle;Max_cycle;Signal;HPM_P1;HPM_P2
2021/08/21 00:02:05;;;;;;;1.60;0.93;;;12.80;49.10;;;;;;5012397;28;20235;-58
2021/08/21 00:04:37;;;;;;;1.80;0.90;;;12.80;48.70;;;;;;5012292;28;20283;-58
2021/08/21 00:07:08;;;;;;;2.30;0.73;;;12.90;48.40;;;;;;5011910;28;20243;-58
2021/08/21 00:09:40;;;;;;;1.85;0.95;;;12.90;48.60;;;;;;5010768;28;20236;-61
2021/08/21 00:12:11;;;;;;;2.45;0.85;;;12.90;48.80;;;;;;5011639;28;20196;-60
2021/08/21 00:14:41;;;;;;;1.45;0.88;;;12.90;48.80;;;;;;5011739;28;20292;-58
2021/08/21 00:17:12;;;;;;;2.60;0.90;;;12.90;48.90;;;;;;5011604;28;20301;-55
2021/08/21 00:19:42;;;;;;;1.52;0.65;;;13.00;49.20;;;;;;5011976;28;20201;-59
2021/08/21 00:22:13;;;;;;;1.45;0.65;;;13.00;49.10;;;;;;5011905;28;20262;-49
2021/08/21 00:24:45;;;;;;;1.92;0.80;;;13.00;49.10;;;;;;5012300;28;20731;-60
2021/08/21 00:27:16;;;;;;;1.10;0.70;;;13.00;49.10;;;;;;5011732;28;20295;-57
2021/08/21 00:29:46;;;;;;;0.88;0.77;;;13.10;49.10;;;;;;5012457;28;20211;-60
2021/08/21 00:32:16;;;;;;;1.40;0.75;;;13.10;49.10;;;;;;5011808;28;20239;-54
2021/08/21 00:34:47;;;;;;;2.30;0.80;;;13.10;49.10;;;;;;5011785;28;20243;-57
2021/08/21 00:37:17;;;;;;;1.08;0.70;;;13.20;49.10;;;;;;5011036;28;20261;-55
2021/08/21 00:39:50;;;;;;;2.08;0.60;;;13.20;49.10;;;;;;5011552;28;20232;-58
2021/08/21 00:42:20;;;;;;;1.50;0.60;;;13.20;49.00;;;;;;5011705;28;20240;-47
2021/08/21 00:44:50;;;;;;;0.88;0.60;;;13.30;49.00;;;;;;5011702;28;20243;-58
2021/08/21 00:47:21;;;;;;;1.58;0.70;;;13.30;48.90;;;;;;5011276;28;20489;-55
2021/08/21 00:49:52;;;;;;;0.70;0.50;;;13.30;48.70;;;;;;5011546;28;20286;-58
2021/08/21 00:52:23;;;;;;;0.35;0.35;;;13.30;48.30;;;;;;5011730;28;20270;-58
2021/08/21 00:54:55;;;;;;;1.10;0.40;;;13.40;48.30;;;;;;5011819;28;20342;-50
2021/08/21 00:57:25;;;;;;;0.85;0.60;;;13.40;48.20;;;;;;5011624;28;20252;-44
2021/08/21 00:59:56;;;;;;;0.85;0.50;;;13.40;47.90;;;;;;5011325;28;20228;-52
2021/08/21 01:02:26;;;;;;;0.70;0.60;;;13.40;47.70;;;;;;5011638;28;20692;-53
2021/08/21 01:04:57;;;;;;;0.75;0.50;;;13.50;47.80;;;;;;5011600;28;20693;-53
2021/08/21 01:07:29;;;;;;;2.00;0.60;;;13.50;48.00;;;;;;5010535;28;20256;-53
2021/08/21 01:10:02;;;;;;;0.57;0.43;;;13.50;48.20;;;;;;5010673;28;20235;-47
2021/08/21 01:12:32;;;;;;;1.45;1.00;;;13.60;48.40;;;;;;5010845;28;20200;-52
2021/08/21 01:15:02;;;;;;;1.42;0.50;;;13.60;48.30;;;;;;5010706;28;20224;-57
2021/08/21 01:17:33;;;;;;;1.30;0.60;;;13.60;48.20;;;;;;5011048;28;20309;-63
2021/08/21 01:20:03;;;;;;;0.80;0.50;;;13.60;47.90;;;;;;5011739;28;20247;-51
2021/08/21 01:22:34;;;;;;;1.52;0.52;;;13.70;48.10;;;;;;5015162;28;20232;-55
2021/08/21 01:25:07;;;;;;;2.40;0.60;;;13.70;47.90;;;;;;5015563;28;20678;-45
2021/08/21 01:27:39;;;;;;;1.83;0.68;;;13.70;47.90;;;;;;5015388;28;20716;-52
2021/08/21 01:30:14;;;;;;;2.88;1.33;;;13.80;48.10;;;;;;5026206;23;20576;-52
2021/08/21 01:32:45;;;;;;;1.77;1.02;;;13.80;48.20;;;;;;5014984;28;20231;-43
2021/08/21 01:35:17;;;;;;;1.70;0.70;;;13.80;48.30;;;;;;5014549;28;20271;-43
2021/08/21 01:37:47;;;;;;;4.43;1.15;;;13.90;48.40;;;;;;5014405;28;20228;-45
2021/08/21 01:40:18;;;;;;;3.85;1.38;;;13.90;48.30;;;;;;5014498;28;20229;-46
2021/08/21 01:42:50;;;;;;;3.97;1.27;;;13.90;48.20;;;;;;5014356;28;20205;-59
2021/08/21 01:45:20;;;;;;;3.05;1.40;;;14.00;48.20;;;;;;5014804;28;20243;-51
2021/08/21 01:47:51;;;;;;;2.28;1.02;;;14.00;48.30;;;;;;5014333;28;20221;-55
2021/08/21 01:50:22;;;;;;;2.75;0.70;;;14.00;48.60;;;;;;5014803;28;20239;-49
2021/08/21 01:52:53;;;;;;;4.82;1.20;;;14.10;49.70;;;;;;5014305;28;20277;-49
2021/08/21 01:55:23;;;;;;;3.17;0.80;;;14.20;50.40;;;;;;5014723;28;20271;-46
2021/08/21 01:57:56;;;;;;;1.30;0.90;;;14.30;50.60;;;;;;5014366;28;20212;-47
2021/08/21 02:00:28;;;;;;;1.58;0.90;;;14.40;50.80;;;;;;5014359;28;20201;-47
2021/08/21 02:02:58;;;;;;;2.95;1.13;;;14.40;50.80;;;;;;5013943;28;20197;-48
2021/08/21 02:05:29;;;;;;;2.00;1.08;;;14.50;50.90;;;;;;5013380;28;20725;-47
2021/08/21 02:07:59;;;;;;;2.33;1.00;;;14.50;51.00;;;;;;5013886;28;20684;-49
2021/08/21 02:10:29;;;;;;;2.55;0.80;;;14.60;51.10;;;;;;5013904;28;20242;-49
2021/08/21 02:13:02;;;;;;;3.85;1.00;;;14.60;51.10;;;;;;5013377;28;20229;-47
2021/08/21 02:15:32;;;;;;;4.25;1.00;;;14.70;51.10;;;;;;5013738;28;20228;-50
2021/08/21 02:18:03;;;;;;;1.92;0.70;;;14.70;51.10;;;;;;5013800;28;20256;-46
2021/08/21 02:20:33;;;;;;;1.33;0.90;;;14.80;51.20;;;;;;5013952;28;20263;-52
2021/08/21 02:23:04;;;;;;;1.42;0.80;;;14.80;51.30;;;;;;5013832;28;20680;-51
2021/08/21 02:25:34;;;;;;;1.10;0.93;;;14.80;51.30;;;;;;5014001;28;20259;-57
2021/08/21 02:28:09;;;;;;;1.90;1.00;;;14.90;51.40;;;;;;5013488;28;20248;-50
2021/08/21 02:30:40;;;;;;;2.30;0.95;;;14.90;51.40;;;;;;5026929;22;20667;-41
2021/08/21 02:33:10;;;;;;;1.70;0.90;;;15.00;51.50;;;;;;5012657;28;20228;-41
2021/08/21 02:35:41;;;;;;;1.20;1.00;;;15.00;51.50;;;;;;5013340;28;20229;-44
2021/08/21 02:38:12;;;;;;;1.58;1.00;;;15.10;51.50;;;;;;5013170;28;20643;-54
2021/08/21 02:40:42;;;;;;;2.85;1.15;;;15.10;51.50;;;;;;5012922;28;20244;-47
2021/08/21 02:43:15;;;;;;;1.90;1.02;;;15.20;51.60;;;;;;5013206;28;20247;-42
2021/08/21 02:45:45;;;;;;;1.70;1.00;;;15.20;51.70;;;;;;5013804;28;20232;-44
2021/08/21 02:48:15;;;;;;;2.45;1.15;;;15.30;51.70;;;;;;5012884;28;20272;-45
2021/08/21 02:50:46;;;;;;;2.45;1.10;;;15.30;51.70;;;;;;5013361;28;20232;-42
2021/08/21 02:53:16;;;;;;;1.77;1.08;;;15.40;51.80;;;;;;5012950;28;20251;-42
2021/08/21 02:55:47;;;;;;;3.10;1.25;;;15.40;51.80;;;;;;5013051;28;20259;-42
2021/08/21 02:58:19;;;;;;;2.30;1.23;;;15.40;51.80;;;;;;4993753;28;20648;-49
2021/08/21 03:00:49;;;;;;;3.22;1.10;;;15.50;51.80;;;;;;4993624;28;20722;-43
2021/08/21 03:03:20;;;;;;;3.13;1.10;;;15.50;51.80;;;;;;4993499;28;20237;-42
2021/08/21 03:05:50;;;;;;;3.30;1.52;;;15.60;51.90;;;;;;4993650;28;20233;-42
2021/08/21 03:08:21;;;;;;;2.58;1.60;;;15.60;51.90;;;;;;4993021;28;20316;-42
2021/08/21 03:10:51;;;;;;;4.35;2.10;;;15.60;52.50;;;;;;4993203;28;20244;-49
2021/08/21 03:13:23;;;;;;;3.65;2.40;;;15.70;51.90;;;;;;4993397;28;20281;-42
2021/08/21 03:15:54;;;;;;;5.55;2.97;;;15.70;51.90;;;;;;5008414;28;20224;-41
2021/08/21 03:18:24;;;;;;;8.13;3.17;;;15.80;52.00;;;;;;5012571;28;20267;-42
2021/08/21 03:20:55;;;;;;;5.35;3.33;;;15.80;51.80;;;;;;5012225;28;20233;-51
2021/08/21 03:23:25;;;;;;;5.22;3.30;;;15.90;51.90;;;;;;5011747;28;20254;-42
2021/08/21 03:25:55;;;;;;;5.60;3.17;;;15.90;51.80;;;;;;5012515;28;20240;-42
2021/08/21 03:28:28;;;;;;;5.63;3.33;;;16.00;52.40;;;;;;5012931;28;20491;-42
2021/08/21 03:30:58;;;;;;;9.07;3.60;;;16.00;51.80;;;;;;5013268;28;20205;-43
2021/08/21 03:33:29;;;;;;;6.03;3.30;;;16.00;51.70;;;;;;5012382;28;20280;-47
2021/08/21 03:35:59;;;;;;;7.10;3.13;;;16.00;51.80;;;;;;5012344;28;20232;-47
2021/08/21 03:38:30;;;;;;;6.10;3.78;;;16.10;51.80;;;;;;5011973;28;20303;-42
2021/08/21 03:41:00;;;;;;;5.03;3.08;;;16.10;51.80;;;;;;5012451;28;20279;-42
2021/08/21 03:43:32;;;;;;;4.57;2.70;;;16.10;51.70;;;;;;5012432;28;20228;-42
2021/08/21 03:46:03;;;;;;;6.50;2.67;;;16.20;51.70;;;;;;5012703;28;20243;-43
2021/08/21 03:48:33;;;;;;;4.45;2.70;;;16.20;51.80;;;;;;5012098;28;22123;-43
2021/08/21 03:51:04;;;;;;;6.13;2.67;;;16.20;51.80;;;;;;5012206;28;20283;-42
2021/08/21 03:53:34;;;;;;;4.60;2.60;;;16.30;51.90;;;;;;5011869;28;20278;-42
2021/08/21 03:56:04;;;;;;;6.57;3.10;;;16.30;51.90;;;;;;5011500;28;20284;-42
2021/08/21 03:58:37;;;;;;;4.97;3.20;;;16.30;51.90;;;;;;5009657;28;20252;-46
2021/08/21 04:01:07;;;;;;;4.93;2.75;;;16.30;51.90;;;;;;5012188;28;20630;-44
2021/08/21 04:03:38;;;;;;;5.28;2.70;;;16.40;51.90;;;;;;5012120;28;20728;-44
2021/08/21 04:06:11;;;;;;;5.05;2.50;;;16.40;51.70;;;;;;5011838;28;20283;-42
2021/08/21 04:08:41;;;;;;;3.90;2.83;;;16.40;51.70;;;;;;5011347;28;20418;-43
2021/08/21 04:11:12;;;;;;;5.35;2.70;;;16.50;51.70;;;;;;5011333;28;20232;-47
2021/08/21 04:13:44;;;;;;;3.92;2.63;;;16.50;51.70;;;;;;5012254;28;20280;-43
2021/08/21 04:16:14;;;;;;;5.55;2.63;;;16.50;51.70;;;;;;5012242;28;20192;-47
2021/08/21 04:18:45;;;;;;;5.57;2.75;;;16.50;51.70;;;;;;5011924;28;20263;-44
2021/08/21 04:21:15;;;;;;;5.00;3.40;;;16.60;51.70;;;;;;5011906;28;20228;-47
2021/08/21 04:23:46;;;;;;;7.82;4.38;;;16.60;51.70;;;;;;5011104;28;20236;-42
2021/08/21 04:26:16;;;;;;;15.95;9.00;;;16.60;51.60;;;;;;5011621;28;20240;-49
2021/08/21 04:28:48;;;;;;;13.15;7.70;;;16.60;51.60;;;;;;5011616;28;20315;-47
2021/08/21 04:31:19;;;;;;;10.15;5.95;;;16.70;51.70;;;;;;5022347;23;20267;-53
2021/08/21 04:33:49;;;;;;;9.40;5.75;;;16.70;51.70;;;;;;5011530;28;20237;-43
2021/08/21 04:36:20;;;;;;;11.75;5.88;;;16.70;51.70;;;;;;5011706;28;20700;-43
2021/08/21 04:38:50;;;;;;;9.10;6.07;;;16.70;51.70;;;;;;5011527;28;20307;-44
2021/08/21 04:41:20;;;;;;;9.70;5.93;;;16.70;51.60;;;;;;5011844;28;20309;-49
2021/08/21 04:43:53;;;;;;;10.35;5.97;;;16.80;51.60;;;;;;5011770;28;20288;-44
2021/08/21 04:46:23;;;;;;;11.13;5.90;;;16.80;51.60;;;;;;5011454;28;20224;-44
2021/08/21 04:48:53;;;;;;;10.77;5.90;;;16.80;51.60;;;;;;5011400;28;20258;-44
2021/08/21 04:51:24;;;;;;;9.48;6.05;;;16.90;51.60;;;;;;5011243;28;20227;-47
2021/08/21 04:53:54;;;;;;;12.18;6.50;;;16.80;51.60;;;;;;5011431;28;20229;-44
2021/08/21 04:56:25;;;;;;;9.07;5.85;;;16.80;51.60;;;;;;5011086;28;20236;-43
2021/08/21 04:58:57;;;;;;;9.80;6.30;;;16.90;51.60;;;;;;5011653;28;20247;-49
2021/08/21 05:01:27;;;;;;;11.18;6.70;;;16.90;51.60;;;;;;5011849;28;20276;-48
2021/08/21 05:03:58;;;;;;;8.93;5.55;;;16.90;51.70;;;;;;5011585;28;20244;-43
2021/08/21 05:06:28;;;;;;;10.25;5.95;;;16.90;52.00;;;;;;5011225;28;20665;-53
2021/08/21 05:08:59;;;;;;;8.98;6.40;;;17.00;52.30;;;;;;5011045;28;20316;-45
2021/08/21 05:11:29;;;;;;;10.40;6.43;;;17.00;52.30;;;;;;5010847;28;20232;-44
2021/08/21 05:14:01;;;;;;;9.05;6.00;;;17.00;52.20;;;;;;5011090;28;20242;-49
2021/08/21 05:16:32;;;;;;;9.05;5.82;;;17.00;52.10;;;;;;5010881;28;20231;-47
2021/08/21 05:19:06;;;;;;;10.05;6.28;;;17.00;52.10;;;;;;5010991;28;20239;-48
2021/08/21 05:21:47;;;;;;;10.82;6.10;;;17.00;51.90;;;;;;5010757;28;20287;-48
2021/08/21 05:24:17;;;;;;;8.07;5.43;;;17.00;51.50;;;;;;5010002;28;20192;-50
2021/08/21 05:26:49;;;;;;;9.73;6.10;;;17.00;51.40;;;;;;5010322;28;20252;-44
2021/08/21 05:29:21;;;;;;;11.02;6.20;;;17.00;51.30;;;;;;5010392;28;20221;-47
2021/08/21 05:31:52;;;;;;;10.43;6.00;;;17.00;51.10;;;;;;5022701;22;20316;-63
2021/08/21 05:34:23;;;;;;;8.85;6.03;;;17.00;51.00;;;;;;5011459;28;20208;-57
2021/08/21 05:36:54;;;;;;;9.73;6.07;;;17.00;50.90;;;;;;5010606;28;20823;-62
2021/08/21 05:39:25;;;;;;;10.05;6.32;;;17.00;50.90;;;;;;5010602;28;20229;-60
2021/08/21 05:41:55;;;;;;;9.10;5.97;;;16.90;50.90;;;;;;5011091;28;20620;-59
2021/08/21 05:44:27;;;;;;;10.50;5.97;;;16.90;50.90;;;;;;5011025;28;20263;-63
2021/08/21 05:46:58;;;;;;;8.13;5.55;;;16.90;51.00;;;;;;5010728;28;20259;-62
2021/08/21 05:49:28;;;;;;;8.27;5.65;;;16.90;51.00;;;;;;5009898;28;20304;-63
2021/08/21 05:51:59;;;;;;;9.00;5.95;;;16.90;51.10;;;;;;5010167;28;20197;-63
2021/08/21 05:54:29;;;;;;;8.23;5.05;;;16.90;51.20;;;;;;5010320;28;20243;-64
2021/08/21 05:56:59;;;;;;;9.02;5.93;;;16.90;51.30;;;;;;5010174;28;20217;-57
2021/08/21 05:59:32;;;;;;;8.48;5.32;;;16.90;51.30;;;;;;5010639;28;20236;-64
2021/08/21 06:02:03;;;;;;;8.07;5.70;;;16.90;52.00;;;;;;5010661;28;20204;-53
2021/08/21 06:04:33;;;;;;;7.90;5.47;;;16.80;51.40;;;;;;5009805;28;20228;-65
2021/08/21 06:07:04;;;;;;;7.78;5.22;;;16.80;51.30;;;;;;5010373;28;20635;-63
2021/08/21 06:09:34;;;;;;;8.15;5.40;;;16.80;51.40;;;;;;5013644;28;20224;-61
2021/08/21 06:12:05;;;;;;;9.27;5.47;;;16.80;51.40;;;;;;5013609;28;20239;-61
2021/08/21 06:14:37;;;;;;;8.15;5.35;;;16.80;51.40;;;;;;5013867;28;20284;-63
2021/08/21 06:17:08;;;;;;;7.18;4.82;;;16.80;51.30;;;;;;5013881;28;20217;-61
2021/08/21 06:19:38;;;;;;;7.20;5.20;;;16.80;51.20;;;;;;5013386;28;20237;-52
2021/08/21 06:22:09;;;;;;;9.90;5.70;;;16.70;51.30;;;;;;5013264;28;20193;-64
2021/08/21 06:24:40;;;;;;;7.38;5.25;;;16.70;51.30;;;;;;5013302;28;20236;-65
2021/08/21 06:27:11;;;;;;;6.90;4.70;;;16.70;51.40;;;;;;5012598;28;20228;-63
2021/08/21 06:32:24;;;;;;;7.85;5.55;;;16.70;51.60;;;;;;5012309;28;20208;-43
2021/08/21 06:34:55;;;;;;;8.32;5.25;;;16.60;51.60;;;;;;5014029;28;20233;-41
2021/08/21 06:37:25;;;;;;;7.75;4.82;;;16.60;51.70;;;;;;5013125;28;20279;-51
2021/08/21 06:39:56;;;;;;;8.18;5.30;;;16.60;51.80;;;;;;5014071;28;20229;-61
2021/08/21 06:42:26;;;;;;;9.95;5.45;;;16.60;52.00;;;;;;5013762;28;20247;-48
2021/08/21 06:44:58;;;;;;;10.75;5.38;;;16.60;52.00;;;;;;5013848;28;20685;-62
2021/08/21 06:47:29;;;;;;;9.27;5.13;;;16.60;52.00;;;;;;5013721;28;20705;-64
2021/08/21 06:49:59;;;;;;;7.55;5.07;;;16.60;52.10;;;;;;5013422;28;20324;-44
2021/08/21 06:52:30;;;;;;;6.38;5.00;;;16.60;52.00;;;;;;5013369;28;20239;-56
2021/08/21 06:55:00;;;;;;;8.80;5.03;;;16.50;51.90;;;;;;5013378;28;20284;-58
2021/08/21 06:57:30;;;;;;;11.18;4.82;;;16.50;51.90;;;;;;5004083;28;20368;-42
2021/08/21 07:00:03;;;;;;;7.55;4.90;;;16.50;52.00;;;;;;5011377;28;20244;-51
2021/08/21 07:02:33;;;;;;;8.15;4.80;;;16.50;52.10;;;;;;5013204;28;20232;-45
2021/08/21 07:05:03;;;;;;;6.25;4.80;;;16.50;52.10;;;;;;5013731;28;20232;-56
2021/08/21 07:07:35;;;;;;;8.57;4.97;;;16.40;52.10;;;;;;5013172;28;20665;-49
2021/08/21 07:10:06;;;;;;;7.03;4.47;;;16.40;52.20;;;;;;5012978;28;20220;-50
2021/08/21 07:12:36;;;;;;;7.13;4.60;;;16.40;52.20;;;;;;5012847;28;20197;-50
2021/08/21 07:15:10;;;;;;;7.85;4.68;;;16.40;52.30;;;;;;5012567;28;20228;-51
2021/08/21 07:17:40;;;;;;;7.85;5.28;;;16.40;52.40;;;;;;5012443;28;20216;-43
2021/08/21 07:20:11;;;;;;;6.40;4.80;;;16.40;52.40;;;;;;5012486;28;20247;-50
2021/08/21 07:22:41;;;;;;;6.60;4.47;;;16.40;52.50;;;;;;5012389;28;20612;-42
2021/08/21 07:25:12;;;;;;;8.68;4.78;;;16.30;52.30;;;;;;5000795;28;20289;-42
2021/08/21 07:27:43;;;;;;;8.90;4.80;;;16.30;52.30;;;;;;5012791;28;20263;-50
2021/08/21 07:30:15;;;;;;;7.88;4.70;;;16.30;52.30;;;;;;5024317;23;20248;-56
2021/08/21 07:32:46;;;;;;;7.13;4.80;;;16.30;52.30;;;;;;5032357;28;20277;-50
2021/08/21 07:35:16;;;;;;;6.28;4.55;;;16.20;52.30;;;;;;5032516;28;20227;-53
2021/08/21 07:37:47;;;;;;;9.15;5.15;;;16.20;52.30;;;;;;5032399;28;20251;-51
2021/08/21 07:40:17;;;;;;;7.25;4.47;;;16.20;52.30;;;;;;5032555;28;20295;-56
2021/08/21 07:42:48;;;;;;;7.72;4.57;;;16.20;52.30;;;;;;5031884;28;20668;-55
2021/08/21 07:45:20;;;;;;;5.25;4.07;;;16.10;52.30;;;;;;5031640;28;20234;-54
2021/08/21 07:47:51;;;;;;;6.88;4.78;;;16.10;52.40;;;;;;5031649;28;20212;-50
2021/08/21 07:50:22;;;;;;;8.13;4.80;;;16.10;52.50;;;;;;5031462;28;20234;-54
2021/08/21 07:52:52;;;;;;;6.68;4.85;;;16.10;52.50;;;;;;5031988;28;20612;-60
2021/08/21 07:55:23;;;;;;;5.25;3.90;;;16.10;52.60;;;;;;5032065;28;20617;-57
2021/08/21 07:57:53;;;;;;;8.27;4.60;;;16.10;52.60;;;;;;5031762;28;20262;-54
2021/08/21 08:00:26;;;;;;;5.35;4.00;;;16.00;52.60;;;;;;5031670;28;20287;-57
2021/08/21 08:02:56;;;;;;;6.80;3.85;;;16.00;52.60;;;;;;5031602;28;20235;-51
2021/08/21 08:05:26;;;;;;;5.47;3.72;;;16.00;52.60;;;;;;5031415;28;20234;-57
2021/08/21 08:07:57;;;;;;;6.05;4.50;;;16.00;52.50;;;;;;5031668;28;20680;-55
2021/08/21 08:10:27;;;;;;;5.40;4.18;;;16.00;52.60;;;;;;5031213;28;20773;-52
2021/08/21 08:12:58;;;;;;;6.50;4.07;;;16.00;52.60;;;;;;5030833;28;20626;-55
2021/08/21 08:15:30;;;;;;;5.45;3.88;;;15.90;52.50;;;;;;5031274;28;20203;-55
2021/08/21 08:18:00;;;;;;;5.63;4.10;;;15.90;52.60;;;;;;5031828;28;20895;-43
2021/08/21 08:20:31;;;;;;;6.18;3.90;;;15.90;53.00;;;;;;5031888;28;20675;-44
2021/08/21 08:23:02;;;;;;;6.50;4.38;;;15.90;53.10;;;;;;5028616;28;20231;-49
2021/08/21 08:25:33;;;;;;;5.88;4.00;;;15.90;53.20;;;;;;5030640;28;20212;-60
2021/08/21 08:28:03;;;;;;;6.43;3.90;;;15.90;53.10;;;;;;5029988;28;20259;-52
2021/08/21 08:30:35;;;;;;;4.93;3.70;;;15.80;53.10;;;;;;5029944;28;20255;-59
2021/08/21 08:33:06;;;;;;;4.75;3.42;;;15.80;53.20;;;;;;5031074;28;20296;-59
2021/08/21 08:35:36;;;;;;;5.78;3.83;;;15.80;53.10;;;;;;5031047;28;20356;-57
2021/08/21 08:38:07;;;;;;;5.45;3.60;;;15.80;53.10;;;;;;5030243;28;20299;-59
2021/08/21 08:40:37;;;;;;;6.88;3.70;;;15.80;53.10;;;;;;5029689;28;20240;-59
2021/08/21 08:43:07;;;;;;;4.65;3.72;;;15.80;53.10;;;;;;5029139;28;20242;-57
2021/08/21 08:45:40;;;;;;;6.00;3.80;;;15.70;53.00;;;;;;5029736;28;20489;-59
2021/08/21 08:48:10;;;;;;;5.82;3.53;;;15.70;53.00;;;;;;5030590;28;20262;-57
2021/08/21 08:50:41;;;;;;;5.50;3.80;;;15.70;53.10;;;;;;5029923;28;20271;-59
2021/08/21 08:53:11;;;;;;;5.68;3.40;;;15.70;53.00;;;;;;5030407;28;20242;-60
2021/08/21 08:55:42;;;;;;;4.80;3.03;;;15.60;53.00;;;;;;5030489;28;20235;-58
2021/08/21 08:58:12;;;;;;;4.90;3.55;;;15.60;53.00;;;;;;5030034;28;20474;-59
2021/08/21 09:00:44;;;;;;;7.15;3.55;;;15.60;53.10;;;;;;5030640;28;20231;-56
2021/08/21 09:03:21;;;;;;;5.72;3.22;;;15.60;53.10;;;;;;5030380;28;20632;-58
2021/08/21 09:05:52;;;;;;;5.30;3.40;;;15.60;53.10;;;;;;5030713;28;20667;-56
2021/08/21 09:08:26;;;;;;;5.18;3.38;;;15.50;53.10;;;;;;5029824;28;20216;-59
2021/08/21 09:10:57;;;;;;;5.70;3.30;;;15.50;53.10;;;;;;5030077;28;20573;-59
2021/08/21 09:13:27;;;;;;;5.80;3.38;;;15.50;53.10;;;;;;5029773;28;20232;-56
2021/08/21 09:16:02;;;;;;;4.80;3.13;;;15.50;53.20;;;;;;5030017;28;20231;-53
2021/08/21 09:18:33;;;;;;;5.80;3.63;;;15.50;53.20;;;;;;5028800;28;20307;-60
2021/08/21 09:21:03;;;;;;;4.88;3.17;;;15.40;53.20;;;;;;5029579;28;20597;-59
2021/08/21 09:23:35;;;;;;;5.13;3.20;;;15.40;53.20;;;;;;5029844;28;20239;-60
2021/08/21 09:26:10;;;;;;;3.88;2.90;;;15.40;53.20;;;;;;5029629;28;20633;-60
2021/08/21 09:28:40;;;;;;;3.28;2.80;;;15.40;53.20;;;;;;5029428;28;20247;-56
2021/08/21 09:31:13;;;;;;;5.22;3.10;;;15.40;53.30;;;;;;5029870;28;20641;-60
2021/08/21 09:33:44;;;;;;;5.50;3.30;;;15.40;53.20;;;;;;5030248;28;20291;-59
2021/08/21 09:36:17;;;;;;;3.92;3.30;;;15.30;53.20;;;;;;5028838;28;20227;-53
2021/08/21 09:38:48;;;;;;;5.07;3.47;;;15.30;53.30;;;;;;5029837;28;20254;-59
2021/08/21 09:41:18;;;;;;;4.40;3.22;;;15.30;53.30;;;;;;5031094;28;20258;-60
2021/08/21 09:43:48;;;;;;;5.10;3.03;;;15.30;53.30;;;;;;5034337;28;20629;-60
2021/08/21 09:46:22;;;;;;;4.32;3.10;;;15.30;53.30;;;;;;5033595;28;20683;-58
2021/08/21 09:49:06;;;;;;;5.00;2.72;;;15.20;53.30;;;;;;5033412;28;20300;-57
2021/08/21 09:51:46;;;;;;;4.13;3.05;;;15.20;53.30;;;;;;5034307;28;20315;-60
2021/08/21 09:54:18;;;;;;;4.18;2.90;;;15.20;53.40;;;;;;5033829;28;20296;-59
2021/08/21 09:56:48;;;;;;;3.80;2.92;;;15.20;53.40;;;;;;5032530;28;20247;-57
2021/08/21 09:59:19;;;;;;;4.75;3.05;;;15.20;53.40;;;;;;5032901;28;20239;-56
2021/08/21 10:01:51;;;;;;;4.10;2.50;;;15.20;53.40;;;;;;5033476;28;20239;-59
2021/08/21 10:04:21;;;;;;;4.57;3.03;;;15.10;53.40;;;;;;5033274;28;20232;-59
2021/08/21 10:06:52;;;;;;;4.28;2.92;;;15.10;53.40;;;;;;5033636;28;20244;-58
2021/08/21 10:09:22;;;;;;;3.40;2.55;;;15.10;53.40;;;;;;5033886;28;20643;-60
2021/08/21 10:11:54;;;;;;;3.58;2.75;;;15.10;53.40;;;;;;5033671;28;20919;-58
2021/08/21 10:14:25;;;;;;;3.65;2.90;;;15.00;53.40;;;;;;5033938;28;20204;-59
2021/08/21 10:16:57;;;;;;;4.00;2.65;;;15.00;53.50;;;;;;5034127;28;20685;-59
2021/08/21 10:19:28;;;;;;;5.18;3.00;;;15.00;53.50;;;;;;5034094;28;20235;-60
2021/08/21 10:21:59;;;;;;;4.10;2.67;;;15.00;53.50;;;;;;5033844;28;20645;-60
2021/08/21 10:24:35;;;;;;;4.55;3.08;;;14.90;53.40;;;;;;5033642;28;20622;-59
2021/08/21 10:27:10;;;;;;;2.67;2.30;;;14.90;53.50;;;;;;5033646;28;20226;-59
2021/08/21 10:29:40;;;;;;;4.20;2.53;;;14.90;53.50;;;;;;5033646;28;20200;-57
2021/08/21 10:32:27;;;;;;;3.92;2.30;;;14.90;53.50;;;;;;5032987;28;20315;-60
2021/08/21 10:34:58;;;;;;;3.95;2.45;;;14.90;53.50;;;;;;5033125;28;20283;-60
2021/08/21 10:37:38;;;;;;;4.15;2.70;;;14.90;53.60;;;;;;5033640;28;20248;-59
2021/08/21 10:40:38;;;;;;;4.80;2.67;;;14.90;53.60;;;;;;5033741;28;20227;-57
2021/08/21 10:43:09;;;;;;;4.55;2.80;;;14.90;53.60;;;;;;5033513;28;20200;-57
2021/08/21 10:45:51;;;;;;;3.63;2.60;;;14.80;53.50;;;;;;5033150;28;20228;-54
2021/08/21 10:48:55;;;;;;;3.40;2.33;;;14.80;53.60;;;;;;5032689;28;20227;-59
2021/08/21 10:51:38;;;;;;;4.10;2.58;;;14.80;53.60;;;;;;5032758;28;20243;-59
2021/08/21 10:54:43;;;;;;;3.90;2.53;;;14.80;53.60;;;;;;5032087;28;20231;-61
2021/08/21 10:57:30;;;;;;;5.03;2.60;;;14.70;53.60;;;;;;5032278;28;20261;-61
2021/08/21 11:00:01;;;;;;;3.30;2.38;;;14.70;53.60;;;;;;5032377;28;20628;-56
2021/08/21 11:02:44;;;;;;;3.83;2.38;;;14.70;53.60;;;;;;5032477;28;20671;-59
2021/08/21 11:05:55;;;;;;;3.78;2.28;;;14.70;53.70;;;;;;5032808;28;20235;-53
2021/08/21 11:08:25;;;;;;;2.53;2.33;;;14.60;53.70;;;;;;5025536;28;20254;-58
2021/08/21 11:11:26;;;;;;;2.70;1.95;;;14.70;53.70;;;;;;5031867;28;20315;-59
2021/08/21 11:13:58;;;;;;;4.10;2.47;;;14.60;53.80;;;;;;5032181;28;20214;-59
2021/08/21 11:16:49;;;;;;;2.80;2.30;;;14.60;53.80;;;;;;5032285;28;20200;-54
2021/08/21 11:19:34;;;;;;;3.08;2.00;;;14.60;53.80;;;;;;5032407;28;20565;-59
2021/08/21 11:22:32;;;;;;;4.20;2.60;;;14.60;53.80;;;;;;5032143;28;20265;-60
2021/08/21 11:25:12;;;;;;;2.55;2.08;;;14.60;53.80;;;;;;5031505;28;20242;-51
2021/08/21 11:27:44;;;;;;;2.30;2.00;;;14.60;53.80;;;;;;5032131;28;20252;-60
2021/08/21 11:30:29;;;;;;;3.72;2.38;;;14.50;53.80;;;;;;5032294;28;20208;-58
2021/08/21 11:33:14;;;;;;;4.20;2.15;;;14.60;53.80;;;;;;5031980;28;20312;-60
2021/08/21 11:35:53;;;;;;;3.67;2.10;;;14.50;53.80;;;;;;5032388;28;20576;-60
2021/08/21 11:38:34;;;;;;;3.65;2.38;;;14.50;53.80;;;;;;5032137;28;20211;-60
2021/08/21 11:41:05;;;;;;;2.10;1.83;;;14.50;53.80;;;;;;5032468;28;20239;-59
2021/08/21 11:43:37;;;;;;;3.85;2.45;;;14.50;53.80;;;;;;5032272;28;20196;-57
2021/08/21 11:46:07;;;;;;;3.95;2.28;;;14.50;53.80;;;;;;5032474;28;20653;-59
2021/08/21 11:48:38;;;;;;;2.92;2.13;;;14.40;53.80;;;;;;5032251;28;20256;-59
2021/08/21 11:51:09;;;;;;;4.20;2.60;;;14.40;53.80;;;;;;5032525;28;20310;-55
2021/08/21 11:53:43;;;;;;;3.58;2.40;;;14.40;53.80;;;;;;5032703;28;20192;-60
2021/08/21 11:56:18;;;;;;;5.30;2.40;;;14.40;53.90;;;;;;5031969;28;20266;-60
2021/08/21 11:58:48;;;;;;;4.03;2.50;;;14.40;53.90;;;;;;5031182;28;20226;-59
2021/08/21 12:01:21;;;;;;;4.18;2.75;;;14.40;53.90;;;;;;5031518;28;20240;-60
2021/08/21 12:06:38;;;;;;;3.85;2.45;;;14.40;53.90;;;;;;5031492;28;20195;-59
2021/08/21 12:09:14;;;;;;;3.28;2.45;;;14.40;53.90;;;;;;5031625;28;20691;-56
2021/08/21 12:11:44;;;;;;;4.95;2.30;;;14.30;53.90;;;;;;5031391;28;20320;-59
2021/08/21 12:14:15;;;;;;;3.60;2.38;;;14.30;53.90;;;;;;5032010;28;20430;-59
2021/08/21 12:16:45;;;;;;;5.95;2.80;;;14.30;53.90;;;;;;5031662;28;20236;-60
2021/08/21 12:19:15;;;;;;;3.80;2.70;;;14.30;53.90;;;;;;5031292;28;20235;-56
2021/08/21 12:21:46;;;;;;;5.40;2.90;;;14.30;53.90;;;;;;5031315;28;20235;-58
2021/08/21 12:24:18;;;;;;;5.07;3.00;;;14.30;53.90;;;;;;5031153;28;20231;-60
2021/08/21 12:26:49;;;;;;;7.65;3.03;;;14.30;53.90;;;;;;5031503;28;20620;-60
2021/08/21 12:29:29;;;;;;;5.03;2.75;;;14.20;53.90;;;;;;5031605;28;20227;-59
2021/08/21 12:32:00;;;;;;;5.07;2.70;;;14.20;53.90;;;;;;5031971;28;20315;-53
2021/08/21 12:34:30;;;;;;;7.72;3.00;;;14.20;53.90;;;;;;5031223;28;20235;-60
2021/08/21 12:37:08;;;;;;;7.88;3.00;;;14.20;53.90;;;;;;5030978;28;20264;-61
2021/08/21 12:39:42;;;;;;;5.70;3.08;;;14.20;54.00;;;;;;5031055;28;20235;-61
2021/08/21 12:42:22;;;;;;;5.32;2.72;;;14.20;54.00;;;;;;5031472;28;20195;-61
2021/08/21 12:44:53;;;;;;;4.35;2.72;;;14.20;54.00;;;;;;5031383;28;20645;-56
2021/08/21 12:47:23;;;;;;;4.47;2.85;;;14.20;54.00;;;;;;5030760;28;20723;-57
2021/08/21 12:49:54;;;;;;;5.38;3.22;;;14.20;54.00;;;;;;5031006;28;20236;-60
2021/08/21 12:52:25;;;;;;;6.20;2.60;;;14.10;54.00;;;;;;5030856;28;20315;-60
2021/08/21 12:55:03;;;;;;;6.30;2.83;;;14.10;54.00;;;;;;5031064;28;20239;-61
2021/08/21 12:57:34;;;;;;;6.60;2.92;;;14.10;54.60;;;;;;5030785;28;20226;-60
2021/08/21 13:00:05;;;;;;;4.88;2.33;;;14.10;54.00;;;;;;5030893;28;20207;-61
2021/08/21 13:02:43;;;;;;;4.38;2.55;;;14.10;54.00;;;;;;5030442;28;20227;-56
2021/08/21 13:05:15;;;;;;;6.28;2.70;;;14.00;54.00;;;;;;5031102;28;20250;-56
2021/08/21 13:07:47;;;;;;;4.85;2.70;;;14.00;53.90;;;;;;5031006;28;20676;-55
2021/08/21 13:10:19;;;;;;;3.67;2.40;;;14.00;54.00;;;;;;5030197;28;20233;-52
2021/08/21 13:12:50;;;;;;;5.38;2.70;;;14.00;54.00;;;;;;5030338;28;20775;-60
2021/08/21 13:15:20;;;;;;;5.38;2.60;;;14.00;54.00;;;;;;5031184;28;20656;-53
2021/08/21 13:17:51;;;;;;;7.57;2.75;;;14.00;54.00;;;;;;5034630;28;20251;-50